Time;durP1;ratioP1;P1;durP2;ratioP2;P2;SDS_P1;SDS_P2;PMS_P1;PMS_P2;Temp;Humidity;BMP_temperature;BMP_pressure;BME280_temperature;BME280_humidity;BME280_pressure;Samples;Min_cycle;Max_cycle;Signal;HPM_P1;HPM_P2
2022/11/04 00:03:36;;;;;;;15.53;10.73;;;15.70;99.90;;;;;;9998311;29;20271;-87
2022/11/04 00:08:38;;;;;;;12.83;9.00;;;15.30;99.90;;;;;;9996174;29;20246;-85
2022/11/04 00:13:41;;;;;;;11.77;8.73;;;15.00;99.90;;;;;;10014393;29;20306;-84
2022/11/04 00:18:43;;;;;;;14.00;9.13;;;14.90;99.90;;;;;;10004282;29;20254;-84
2022/11/04 00:29:07;;;;;;;13.47;8.87;;;14.90;99.90;;;;;;10021681;29;20250;-84
2022/11/04 00:34:09;;;;;;;13.03;9.00;;;14.30;99.90;;;;;;10020604;29;20274;-84
2022/11/04 00:39:12;;;;;;;15.83;10.40;;;14.90;99.90;;;;;;10020486;29;20649;-84
2022/11/04 00:44:14;;;;;;;12.63;8.50;;;14.60;99.90;;;;;;10004059;29;20250;-84
2022/11/04 00:49:17;;;;;;;10.67;7.97;;;14.80;99.90;;;;;;10004605;29;20245;-84
2022/11/04 00:54:19;;;;;;;15.37;9.50;;;15.00;99.90;;;;;;10020283;29;20246;-85
2022/11/04 00:59:22;;;;;;;16.57;8.93;;;15.70;99.90;;;;;;9986114;29;20776;-84
2022/11/04 01:04:24;;;;;;;14.50;9.43;;;15.70;99.90;;;;;;10004805;29;20290;-83
2022/11/04 01:09:27;;;;;;;17.30;9.83;;;15.80;99.90;;;;;;10019897;29;20254;-84
2022/11/04 01:14:29;;;;;;;13.57;8.47;;;14.00;99.90;;;;;;10002901;29;20252;-83
2022/11/04 01:19:32;;;;;;;11.23;8.00;;;14.50;99.90;;;;;;10003216;29;20265;-84
2022/11/04 01:24:34;;;;;;;17.83;9.73;;;14.90;99.90;;;;;;10002225;29;20223;-83
2022/11/04 01:29:37;;;;;;;12.17;8.87;;;15.60;99.90;;;;;;10019507;29;20716;-84
2022/11/04 01:34:39;;;;;;;20.77;9.77;;;15.60;99.90;;;;;;9987386;29;20620;-83
2022/11/04 01:39:45;;;;;;;13.93;8.80;;;15.70;99.90;;;;;;10001541;29;20680;-84
2022/11/04 01:44:48;;;;;;;15.07;9.33;;;15.90;99.90;;;;;;10018576;29;20378;-84
2022/11/04 01:49:59;;;;;;;14.13;8.67;;;15.80;99.90;;;;;;10018240;29;20685;-84
2022/11/04 01:55:08;;;;;;;11.53;8.03;;;15.50;99.90;;;;;;10001103;29;20822;-84
2022/11/04 02:00:11;;;;;;;17.73;9.73;;;15.80;99.90;;;;;;10016508;29;20306;-84
2022/11/04 02:05:14;;;;;;;12.23;8.83;;;16.00;99.90;;;;;;10000801;29;20235;-84
2022/11/04 02:10:18;;;;;;;22.60;10.63;;;15.70;99.90;;;;;;10017510;29;20320;-84
2022/11/04 02:15:40;;;;;;;19.30;10.73;;;15.70;99.90;;;;;;10015685;29;20349;-84
2022/11/04 02:21:01;;;;;;;11.90;7.90;;;15.30;99.90;;;;;;9981371;29;20268;-83
2022/11/04 02:26:30;;;;;;;13.63;8.57;;;15.40;99.90;;;;;;10016547;29;20671;-84
2022/11/04 02:31:51;;;;;;;13.63;8.97;;;15.90;99.90;;;;;;9995030;29;20314;-84
2022/11/04 02:37:16;;;;;;;12.33;8.30;;;15.90;99.90;;;;;;10003147;29;20669;-84
2022/11/04 02:42:23;;;;;;;13.97;9.50;;;15.90;99.90;;;;;;9963977;29;20640;-84
2022/11/04 02:47:30;;;;;;;14.57;8.43;;;15.10;99.90;;;;;;10011408;29;20241;-84
2022/11/04 02:53:02;;;;;;;12.33;8.67;;;15.20;99.90;;;;;;10014870;29;20712;-84
2022/11/04 02:58:11;;;;;;;14.17;8.77;;;15.30;99.90;;;;;;10015034;29;20258;-84
2022/11/04 03:03:24;;;;;;;11.17;8.43;;;15.20;99.90;;;;;;10013673;29;20276;-84
2022/11/04 03:08:32;;;;;;;13.47;8.17;;;15.40;99.90;;;;;;10014838;29;20682;-84
2022/11/04 03:13:43;;;;;;;13.83;8.73;;;15.60;99.90;;;;;;9998166;29;20659;-84
2022/11/04 03:19:10;;;;;;;9.57;7.77;;;14.70;99.90;;;;;;10013951;29;20697;-83
2022/11/04 03:24:13;;;;;;;11.13;8.70;;;14.70;99.90;;;;;;9998242;29;20305;-83
2022/11/04 03:29:26;;;;;;;14.13;9.27;;;14.60;99.90;;;;;;10004913;29;20665;-84
2022/11/04 03:34:29;;;;;;;11.83;8.37;;;14.40;99.90;;;;;;9996886;29;20353;-84
2022/11/04 03:39:32;;;;;;;13.80;9.97;;;14.30;99.90;;;;;;9997683;29;20241;-84
2022/11/04 03:44:35;;;;;;;16.20;8.50;;;15.00;99.90;;;;;;10013675;29;20641;-84
2022/11/04 03:49:38;;;;;;;18.77;11.33;;;14.40;99.90;;;;;;10013103;29;20842;-84
2022/11/04 03:54:41;;;;;;;11.77;8.37;;;14.30;99.90;;;;;;10011703;29;20277;-84
2022/11/04 03:59:59;;;;;;;10.80;8.37;;;14.30;99.90;;;;;;9997257;29;20218;-85
2022/11/04 04:05:12;;;;;;;11.03;8.00;;;15.00;99.90;;;;;;9997465;29;20669;-84
2022/11/04 04:10:39;;;;;;;15.37;9.33;;;15.10;99.90;;;;;;10011603;29;20662;-84
2022/11/04 04:15:46;;;;;;;15.83;9.97;;;14.70;99.90;;;;;;10013929;29;20672;-84
2022/11/04 04:20:53;;;;;;;15.73;9.90;;;13.80;99.90;;;;;;9997656;29;20669;-84
2022/11/04 04:37:00;;;;;;;11.57;8.73;;;13.40;99.90;;;;;;10013703;29;20274;-84
2022/11/04 04:47:25;;;;;;;17.93;10.87;;;14.20;99.90;;;;;;9995472;29;20265;-84
2022/11/04 04:52:32;;;;;;;21.63;11.87;;;13.90;99.90;;;;;;10012838;29;20835;-84
2022/11/04 04:57:34;;;;;;;10.70;8.57;;;14.30;99.90;;;;;;9984966;29;20282;-84
2022/11/04 05:02:37;;;;;;;14.37;8.47;;;14.80;99.90;;;;;;10013142;29;20268;-84
2022/11/04 05:07:40;;;;;;;17.90;11.93;;;15.60;99.90;;;;;;10018777;29;20321;-85
2022/11/04 05:18:04;;;;;;;14.43;9.97;;;15.20;99.90;;;;;;10018022;29;20644;-84
2022/11/04 05:23:07;;;;;;;13.23;9.17;;;14.10;99.90;;;;;;10002913;29;20272;-84
2022/11/04 05:28:09;;;;;;;10.87;8.10;;;14.60;99.90;;;;;;10002153;29;20249;-84
2022/11/04 05:33:12;;;;;;;15.87;11.37;;;15.20;99.90;;;;;;10000478;29;20668;-83
2022/11/04 05:38:15;;;;;;;12.60;8.57;;;14.90;99.90;;;;;;10002414;29;20245;-84
2022/11/04 05:43:17;;;;;;;14.97;9.87;;;13.80;99.90;;;;;;9986527;29;20314;-84
2022/11/04 05:48:20;;;;;;;11.10;8.10;;;13.90;99.90;;;;;;9974556;29;20293;-84
2022/11/04 05:53:22;;;;;;;12.07;8.73;;;14.00;99.90;;;;;;10015289;29;20252;-84
2022/11/04 05:58:25;;;;;;;11.97;8.73;;;14.40;99.90;;;;;;10018216;29;20313;-84
2022/11/04 06:03:28;;;;;;;17.23;11.70;;;15.10;99.90;;;;;;10015717;29;20324;-84
2022/11/04 06:08:31;;;;;;;16.63;9.60;;;15.00;99.90;;;;;;10015161;29;20307;-84
2022/11/04 06:13:33;;;;;;;14.17;10.47;;;14.70;99.90;;;;;;10015937;29;20648;-84
2022/11/04 06:18:36;;;;;;;9.83;7.73;;;15.10;99.90;;;;;;10016909;29;20248;-84
2022/11/04 06:23:41;;;;;;;10.83;8.07;;;15.80;99.90;;;;;;9999282;29;20259;-84
2022/11/04 06:28:44;;;;;;;13.27;8.73;;;16.00;99.90;;;;;;10016305;29;20746;-84
2022/11/04 06:33:47;;;;;;;11.27;8.77;;;15.80;99.90;;;;;;9997412;29;20333;-84
2022/11/04 06:38:50;;;;;;;11.20;8.97;;;15.80;99.90;;;;;;10006399;29;20647;-84
2022/11/04 06:43:53;;;;;;;23.03;14.37;;;15.70;99.90;;;;;;10000790;29;20246;-87
2022/11/04 06:48:56;;;;;;;28.03;17.67;;;13.60;98.90;;;;;;9997295;29;20206;-84
2022/11/04 06:53:59;;;;;;;29.73;16.93;;;8.10;99.90;;;;;;9977252;29;20252;-85
2022/11/04 06:59:03;;;;;;;24.50;14.07;;;7.50;99.90;;;;;;9997153;29;20246;-84
2022/11/04 07:04:05;;;;;;;24.53;14.47;;;7.40;99.90;;;;;;9984894;29;20735;-86
2022/11/04 07:09:10;;;;;;;21.33;14.40;;;7.30;99.90;;;;;;9980235;29;20290;-86
2022/11/04 07:14:13;;;;;;;29.17;16.73;;;7.40;99.90;;;;;;10008530;29;20327;-85
2022/11/04 07:19:15;;;;;;;26.43;16.13;;;7.40;99.90;;;;;;9999607;29;20279;-85
2022/11/04 07:24:18;;;;;;;33.07;17.43;;;7.40;99.90;;;;;;9991358;29;20259;-86
2022/11/04 07:29:20;;;;;;;25.07;15.53;;;7.50;99.90;;;;;;9978516;29;20239;-87
2022/11/04 07:34:23;;;;;;;23.33;14.17;;;7.50;99.90;;;;;;9992823;29;20259;-85
2022/11/04 07:39:25;;;;;;;24.53;15.27;;;7.80;99.90;;;;;;9964124;29;20242;-86
2022/11/04 07:44:28;;;;;;;27.33;15.20;;;7.90;99.90;;;;;;9996771;29;20656;-86
2022/11/04 07:49:30;;;;;;;26.00;15.47;;;7.90;99.90;;;;;;9999980;29;20249;-85
2022/11/04 07:54:33;;;;;;;24.83;15.17;;;8.20;99.90;;;;;;9997463;29;20267;-85
2022/11/04 07:59:35;;;;;;;25.60;15.07;;;8.40;99.90;;;;;;9986156;29;20629;-86
2022/11/04 08:04:38;;;;;;;23.87;14.87;;;8.70;99.90;;;;;;9992606;29;20320;-85
2022/11/04 08:09:40;;;;;;;21.83;12.63;;;9.00;99.90;;;;;;9977454;29;20271;-85
2022/11/04 08:14:43;;;;;;;11.10;7.53;;;9.40;99.90;;;;;;9996309;29;20338;-84
2022/11/04 08:19:45;;;;;;;19.70;9.70;;;10.40;99.90;;;;;;9994230;29;20654;-84
2022/11/04 08:24:48;;;;;;;22.70;14.90;;;13.30;99.90;;;;;;9983030;29;20268;-83
2022/11/04 08:29:50;;;;;;;25.90;15.00;;;14.30;99.90;;;;;;9995263;29;20637;-83
2022/11/04 08:34:53;;;;;;;17.53;9.73;;;11.20;99.90;;;;;;10013563;29;20265;-83
2022/11/04 08:39:55;;;;;;;15.77;9.20;;;13.70;99.90;;;;;;9985440;29;20825;-83
2022/11/04 08:44:58;;;;;;;12.57;7.87;;;15.10;99.90;;;;;;10014967;29;20334;-82
2022/11/04 08:50:00;;;;;;;19.03;9.90;;;15.60;99.90;;;;;;9976791;29;20660;-82
2022/11/04 08:55:03;;;;;;;11.87;7.50;;;15.90;99.90;;;;;;10020146;29;20246;-82
2022/11/04 09:00:06;;;;;;;13.57;7.93;;;16.50;99.90;;;;;;9984375;29;20247;-83
2022/11/04 09:05:09;;;;;;;14.77;8.93;;;16.60;99.90;;;;;;10009674;29;20270;-83
2022/11/04 09:10:11;;;;;;;19.57;10.60;;;17.00;99.90;;;;;;9983921;29;20663;-82
2022/11/04 09:15:14;;;;;;;14.37;8.93;;;16.70;99.90;;;;;;9981337;29;20250;-82
2022/11/04 09:20:16;;;;;;;16.33;9.87;;;16.70;99.90;;;;;;9989048;29;20238;-83
2022/11/04 09:25:19;;;;;;;12.03;8.50;;;17.00;99.90;;;;;;9992043;29;20330;-83
2022/11/04 09:30:21;;;;;;;12.73;7.90;;;17.40;99.90;;;;;;10019260;29;20270;-84
2022/11/04 09:35:26;;;;;;;17.53;9.70;;;17.40;99.90;;;;;;10000596;29;20720;-83
2022/11/04 09:40:29;;;;;;;14.17;8.80;;;17.20;99.90;;;;;;10000916;29;20287;-83
2022/11/04 09:45:32;;;;;;;12.67;7.97;;;17.10;99.90;;;;;;10015551;29;20270;-83
2022/11/04 09:50:48;;;;;;;21.70;11.80;;;17.30;99.90;;;;;;10001214;29;20299;-84
2022/11/04 09:55:58;;;;;;;9.30;6.67;;;17.10;99.90;;;;;;10016176;29;20358;-85
2022/11/04 10:01:13;;;;;;;16.13;9.53;;;17.30;99.90;;;;;;10011802;29;20247;-84
2022/11/04 10:06:45;;;;;;;21.67;9.57;;;17.30;99.90;;;;;;10016469;29;20706;-84
2022/11/04 10:11:53;;;;;;;10.93;6.87;;;16.90;99.90;;;;;;10016201;29;20318;-84
2022/11/04 10:17:09;;;;;;;13.33;8.70;;;17.20;99.90;;;;;;10011154;29;20258;-85
2022/11/04 10:22:31;;;;;;;10.97;7.57;;;16.90;99.90;;;;;;9999502;29;20277;-85
2022/11/04 10:27:37;;;;;;;13.53;10.50;;;16.40;99.90;;;;;;10016091;29;20249;-84
2022/11/04 10:32:51;;;;;;;20.77;13.60;;;16.90;99.90;;;;;;9999272;29;20282;-84
2022/11/04 10:37:56;;;;;;;22.63;12.50;;;16.70;99.90;;;;;;9997965;29;20326;-85
2022/11/04 10:43:00;;;;;;;14.53;8.20;;;16.00;99.90;;;;;;10015550;29;20261;-85
2022/11/04 10:48:14;;;;;;;14.37;10.03;;;16.20;99.90;;;;;;9993884;29;20822;-84
2022/11/04 10:53:23;;;;;;;12.40;8.60;;;16.90;99.90;;;;;;9995774;29;20316;-84
2022/11/04 10:58:35;;;;;;;10.77;8.10;;;17.00;99.90;;;;;;10006360;29;20255;-85
2022/11/04 11:03:38;;;;;;;12.90;8.43;;;17.00;99.90;;;;;;9982218;29;20276;-83
2022/11/04 11:08:41;;;;;;;13.17;8.63;;;17.30;99.90;;;;;;9976484;29;20253;-83
2022/11/04 11:13:45;;;;;;;10.00;7.47;;;17.40;99.90;;;;;;9996696;29;20258;-83
2022/11/04 11:19:12;;;;;;;9.37;7.50;;;17.50;99.90;;;;;;9966265;29;20257;-83
2022/11/04 11:24:20;;;;;;;18.10;9.70;;;17.50;99.90;;;;;;9995987;29;20262;-85
2022/11/04 11:29:39;;;;;;;13.27;8.07;;;15.20;99.90;;;;;;10006690;29;20254;-85
2022/11/04 11:34:46;;;;;;;15.67;8.90;;;16.40;99.90;;;;;;9972293;29;20299;-84
2022/11/04 11:39:48;;;;;;;11.57;8.03;;;17.00;99.90;;;;;;9995327;29;20247;-85
2022/11/04 11:44:55;;;;;;;26.07;13.33;;;17.10;99.90;;;;;;9997543;29;20264;-84
2022/11/04 11:50:14;;;;;;;19.40;13.87;;;16.80;99.90;;;;;;9998747;29;20232;-82
2022/11/04 11:55:35;;;;;;;13.30;8.13;;;16.00;99.90;;;;;;9991896;29;20254;-83
2022/11/04 12:00:52;;;;;;;14.53;9.47;;;16.90;99.90;;;;;;10006512;29;20254;-83
2022/11/04 12:06:14;;;;;;;10.03;7.77;;;17.40;99.90;;;;;;9988811;29;20322;-86
2022/11/04 12:11:33;;;;;;;10.97;8.40;;;17.50;99.90;;;;;;9999585;29;20281;-87
2022/11/04 12:17:05;;;;;;;10.27;7.80;;;17.50;99.90;;;;;;10021655;29;20340;-84
2022/11/04 12:22:19;;;;;;;11.97;7.03;;;17.60;99.90;;;;;;10003933;29;20265;-85
2022/11/04 12:27:31;;;;;;;11.70;8.77;;;17.60;99.90;;;;;;9998602;29;20249;-84
2022/11/04 12:32:58;;;;;;;10.93;8.37;;;17.70;99.90;;;;;;10020183;29;20256;-86
2022/11/04 12:38:16;;;;;;;10.17;7.90;;;17.80;99.90;;;;;;10008992;29;20270;-86
2022/11/04 12:43:44;;;;;;;12.00;8.83;;;17.70;99.90;;;;;;10001485;29;20272;-84
2022/11/04 12:49:14;;;;;;;23.50;13.47;;;17.80;99.90;;;;;;10018668;29;20249;-84
2022/11/04 12:54:32;;;;;;;16.73;10.33;;;17.30;99.90;;;;;;10015224;29;20251;-84
2022/11/04 12:59:55;;;;;;;13.47;9.03;;;17.10;99.90;;;;;;10019452;29;20310;-84
2022/11/04 13:05:25;;;;;;;13.50;8.70;;;17.10;99.90;;;;;;10019059;29;20270;-85
2022/11/04 13:10:49;;;;;;;11.77;8.13;;;17.10;99.90;;;;;;10019547;29;20254;-85
2022/11/04 13:15:56;;;;;;;20.17;12.67;;;17.10;99.90;;;;;;10001376;29;20255;-85
2022/11/04 13:21:04;;;;;;;14.07;9.00;;;17.40;99.90;;;;;;10000109;29;20703;-85
2022/11/04 13:26:11;;;;;;;20.77;12.17;;;17.40;99.90;;;;;;9961077;29;20274;-85
2022/11/04 13:31:29;;;;;;;9.37;7.43;;;17.20;99.90;;;;;;9963751;29;20246;-85
2022/11/04 13:36:46;;;;;;;12.93;8.63;;;16.90;99.90;;;;;;9982884;29;20669;-85
2022/11/04 13:41:57;;;;;;;11.97;7.57;;;16.80;99.90;;;;;;9980505;29;20258;-87
2022/11/04 13:47:05;;;;;;;12.50;9.90;;;17.10;99.90;;;;;;9982155;29;20275;-87
2022/11/04 13:52:07;;;;;;;14.17;8.87;;;17.20;99.90;;;;;;9984347;29;20315;-84
2022/11/04 13:57:26;;;;;;;17.37;10.83;;;17.20;99.90;;;;;;9996127;29;20246;-85
2022/11/04 14:02:44;;;;;;;11.47;7.77;;;17.30;99.90;;;;;;9997792;29;20732;-85
2022/11/04 14:08:16;;;;;;;27.50;18.73;;;17.40;99.90;;;;;;10002424;29;20393;-83
2022/11/04 14:13:33;;;;;;;25.03;18.50;;;17.10;99.90;;;;;;9985355;29;20257;-84
2022/11/04 14:18:38;;;;;;;31.83;20.47;;;17.20;99.90;;;;;;9978650;29;20789;-84
2022/11/04 14:23:44;;;;;;;31.10;19.97;;;17.00;99.90;;;;;;9998801;29;20327;-84
2022/11/04 14:29:21;;;;;;;26.93;18.43;;;16.30;99.90;;;;;;9988718;29;20247;-84
2022/11/04 14:34:32;;;;;;;26.60;17.23;;;16.30;99.90;;;;;;9988252;29;20832;-84
2022/11/04 14:39:39;;;;;;;26.33;16.90;;;16.50;99.90;;;;;;9978130;29;20214;-84
2022/11/04 14:44:44;;;;;;;27.30;16.80;;;16.60;99.90;;;;;;9982178;29;20264;-84
2022/11/04 14:50:02;;;;;;;30.90;19.33;;;16.60;99.90;;;;;;9971550;29;20249;-84
2022/11/04 14:55:09;;;;;;;28.87;17.87;;;16.60;99.90;;;;;;9978824;29;20415;-84
2022/11/04 15:00:33;;;;;;;41.00;27.33;;;16.70;99.90;;;;;;9978367;29;20330;-83
2022/11/04 15:05:38;;;;;;;28.37;18.17;;;16.40;99.90;;;;;;9982290;29;20306;-84
2022/11/04 15:10:40;;;;;;;22.43;16.47;;;16.10;99.90;;;;;;9995025;29;20296;-83
2022/11/04 15:15:44;;;;;;;28.77;17.43;;;16.00;99.90;;;;;;9994084;29;20319;-84
2022/11/04 15:20:56;;;;;;;24.90;15.37;;;16.20;99.90;;;;;;9995704;29;20241;-84
2022/11/04 15:25:59;;;;;;;28.03;17.37;;;16.10;99.90;;;;;;9971073;29;20268;-83
2022/11/04 15:31:10;;;;;;;27.00;15.43;;;15.90;99.90;;;;;;9991664;29;20741;-84
2022/11/04 15:36:35;;;;;;;25.13;15.07;;;16.10;99.90;;;;;;9995508;29;20669;-84
2022/11/04 15:47:19;;;;;;;24.43;16.30;;;16.10;99.90;;;;;;9975536;29;20262;-83
2022/11/04 15:52:26;;;;;;;21.17;15.13;;;16.00;99.90;;;;;;9992429;29;20279;-84
2022/11/04 15:57:38;;;;;;;22.23;15.97;;;15.80;99.90;;;;;;9993855;29;20785;-84
2022/11/04 16:02:53;;;;;;;23.57;16.87;;;15.90;99.90;;;;;;10005807;29;20245;-84
2022/11/04 16:08:21;;;;;;;22.60;15.00;;;16.10;99.90;;;;;;9992077;29;20263;-84
2022/11/04 16:13:24;;;;;;;48.97;32.37;;;16.20;99.90;;;;;;9989957;29;20628;-84
2022/11/04 16:18:36;;;;;;;35.20;22.73;;;15.70;99.90;;;;;;9986928;29;20644;-84
2022/11/04 16:23:47;;;;;;;30.70;21.50;;;15.30;99.90;;;;;;9995488;29;20252;-83
2022/11/04 16:28:56;;;;;;;56.77;35.53;;;15.60;99.90;;;;;;9978218;29;20240;-84
2022/11/04 16:33:59;;;;;;;33.67;21.70;;;15.10;99.90;;;;;;9994938;29;20311;-84
2022/11/04 16:39:07;;;;;;;33.60;20.27;;;14.10;99.90;;;;;;9976009;29;20252;-84
2022/11/04 16:44:21;;;;;;;25.50;16.53;;;14.10;99.90;;;;;;9992768;29;20805;-84
2022/11/04 16:49:23;;;;;;;28.30;17.67;;;15.10;99.90;;;;;;9976436;29;20273;-84
2022/11/04 16:54:26;;;;;;;26.40;17.87;;;14.40;99.90;;;;;;9974746;29;20292;-83
2022/11/04 16:59:29;;;;;;;35.53;22.17;;;15.50;99.90;;;;;;9997919;29;20254;-84
2022/11/04 17:04:31;;;;;;;43.13;26.20;;;15.80;99.90;;;;;;9981685;29;20319;-84
2022/11/04 17:09:34;;;;;;;28.87;18.07;;;15.30;99.90;;;;;;9982554;29;20242;-84
2022/11/04 17:14:36;;;;;;;33.07;23.80;;;15.50;99.90;;;;;;9997012;29;20251;-84
2022/11/04 17:19:39;;;;;;;34.93;24.83;;;15.70;99.90;;;;;;9950967;29;20288;-84
2022/11/04 17:24:41;;;;;;;21.00;15.53;;;16.10;99.90;;;;;;9965191;29;20274;-83
2022/11/04 17:29:43;;;;;;;24.77;17.27;;;16.30;99.90;;;;;;9981166;29;20245;-84
2022/11/04 17:34:46;;;;;;;26.63;18.37;;;16.80;99.90;;;;;;9964678;29;20279;-83
2022/11/04 17:39:48;;;;;;;29.00;19.00;;;15.90;99.90;;;;;;9964754;29;20299;-84
2022/11/04 17:44:51;;;;;;;39.23;24.77;;;15.50;99.90;;;;;;9964743;29;20274;-84
2022/11/04 17:49:53;;;;;;;40.57;22.77;;;15.40;99.90;;;;;;9980248;29;20257;-84
2022/11/04 17:54:56;;;;;;;31.30;21.97;;;14.80;99.90;;;;;;9980482;29;20743;-84
2022/11/04 17:59:58;;;;;;;25.53;17.70;;;14.40;99.90;;;;;;9964074;29;20229;-84
2022/11/04 18:05:02;;;;;;;36.30;22.83;;;14.80;99.90;;;;;;9963725;29;20329;-83
2022/11/04 18:10:05;;;;;;;43.53;26.57;;;15.50;99.90;;;;;;9978975;29;20239;-84
2022/11/04 18:15:13;;;;;;;51.60;21.70;;;14.80;99.90;;;;;;9998567;29;20252;-85
2022/11/04 18:20:17;;;;;;;40.70;23.30;;;15.50;99.90;;;;;;9993735;29;20249;-85
2022/11/04 18:25:20;;;;;;;40.13;24.93;;;12.10;99.90;;;;;;10000678;29;20331;-85
2022/11/04 18:30:22;;;;;;;47.60;28.53;;;13.50;99.90;;;;;;9985908;29;20297;-87
2022/11/04 18:35:25;;;;;;;56.53;30.03;;;9.60;99.90;;;;;;10015737;29;20268;-86
2022/11/04 18:40:27;;;;;;;53.00;30.27;;;9.10;99.90;;;;;;9999696;29;20246;-87
2022/11/04 18:45:30;;;;;;;50.63;29.80;;;9.10;99.90;;;;;;9994012;29;20266;-87
2022/11/04 18:50:33;;;;;;;33.97;18.93;;;12.80;99.90;;;;;;10008810;29;20248;-86
2022/11/04 18:55:35;;;;;;;40.00;23.00;;;14.50;99.90;;;;;;10006673;29;20234;-86
2022/11/04 19:00:39;;;;;;;29.50;17.90;;;15.00;99.90;;;;;;10015874;29;21030;-86
2022/11/04 19:05:41;;;;;;;26.30;17.93;;;16.00;99.90;;;;;;9998596;29;20322;-86
2022/11/04 19:10:44;;;;;;;33.93;21.33;;;17.00;99.90;;;;;;10013969;29;20251;-86
2022/11/04 19:16:21;;;;;;;29.40;18.87;;;16.80;99.90;;;;;;9997979;29;20262;-86
2022/11/04 19:21:28;;;;;;;31.53;18.67;;;16.30;99.90;;;;;;9993795;29;20772;-86
2022/11/04 19:26:32;;;;;;;34.47;21.90;;;16.70;99.90;;;;;;9993396;29;20273;-85
2022/11/04 19:31:35;;;;;;;33.97;20.27;;;16.70;99.90;;;;;;10000439;29;20245;-86
2022/11/04 19:36:38;;;;;;;29.03;18.20;;;16.60;99.90;;;;;;10004734;29;20281;-85
2022/11/04 19:47:02;;;;;;;26.23;16.87;;;18.20;99.90;;;;;;10010300;29;20270;-86
2022/11/04 19:52:05;;;;;;;28.33;19.10;;;18.30;99.90;;;;;;9996088;29;20611;-85
2022/11/04 19:57:08;;;;;;;28.83;19.47;;;18.40;99.90;;;;;;10008316;29;20708;-84
2022/11/04 20:02:14;;;;;;;31.70;21.30;;;17.60;99.90;;;;;;10013971;29;20245;-86
2022/11/04 20:07:17;;;;;;;27.23;17.43;;;17.40;99.90;;;;;;9997641;29;20293;-87
2022/11/04 20:17:41;;;;;;;28.13;19.13;;;18.60;99.90;;;;;;9668383;29;9999846;-84
2022/11/04 20:22:44;;;;;;;25.50;17.53;;;18.50;99.90;;;;;;10005327;29;20245;-85
2022/11/04 20:27:47;;;;;;;39.93;22.03;;;18.60;99.90;;;;;;10010005;29;20258;-85
2022/11/04 20:32:50;;;;;;;42.97;23.33;;;17.80;99.90;;;;;;9997611;29;20245;-85
2022/11/04 20:37:53;;;;;;;34.87;21.43;;;17.40;99.90;;;;;;10018043;29;20273;-85
2022/11/04 20:42:55;;;;;;;34.07;23.73;;;17.30;99.90;;;;;;10018896;29;20253;-83
2022/11/04 20:47:58;;;;;;;36.37;23.57;;;17.10;99.90;;;;;;10010133;29;20345;-85
2022/11/04 20:53:00;;;;;;;39.47;24.77;;;16.90;99.90;;;;;;9998910;29;20270;-85
2022/11/04 20:58:03;;;;;;;27.80;18.80;;;16.90;99.90;;;;;;9999745;29;20254;-85
2022/11/04 21:03:06;;;;;;;35.43;23.13;;;16.90;99.90;;;;;;10013892;29;20306;-85
2022/11/04 21:08:08;;;;;;;25.63;16.73;;;17.40;99.90;;;;;;9994495;29;20324;-84
2022/11/04 21:13:11;;;;;;;24.43;16.80;;;17.70;99.90;;;;;;10015062;29;20257;-85
2022/11/04 21:18:14;;;;;;;28.63;17.27;;;18.00;99.90;;;;;;10017249;29;20245;-84
2022/11/04 21:23:19;;;;;;;24.50;17.33;;;18.30;99.90;;;;;;9999385;29;20272;-85
2022/11/04 21:28:22;;;;;;;22.40;16.57;;;18.50;99.90;;;;;;9997497;29;20269;-85
2022/11/04 21:33:25;;;;;;;23.97;17.97;;;18.60;99.90;;;;;;10014315;29;20294;-84
2022/11/04 21:38:27;;;;;;;26.73;17.60;;;18.30;99.90;;;;;;9993453;29;20238;-84
2022/11/04 21:43:31;;;;;;;25.57;16.43;;;18.30;99.90;;;;;;9998105;29;20240;-85
2022/11/04 21:48:34;;;;;;;32.17;20.67;;;18.20;99.90;;;;;;10015020;29;20261;-85
2022/11/04 21:53:37;;;;;;;33.17;22.40;;;18.10;99.90;;;;;;9999584;29;20249;-84
2022/11/04 21:58:42;;;;;;;22.60;16.17;;;17.90;99.90;;;;;;10014668;29;20249;-84
2022/11/04 22:03:52;;;;;;;22.43;17.23;;;18.20;99.90;;;;;;9997387;29;20298;-85
2022/11/04 22:08:55;;;;;;;33.07;20.97;;;18.20;99.90;;;;;;10013549;29;20270;-84
2022/11/04 22:14:00;;;;;;;25.03;17.63;;;18.30;99.90;;;;;;9992502;29;20249;-85
2022/11/04 22:19:04;;;;;;;30.57;21.73;;;18.50;99.90;;;;;;9997312;29;20254;-85
2022/11/04 22:24:15;;;;;;;22.43;16.30;;;18.20;99.90;;;;;;10013723;29;20306;-86
2022/11/04 22:29:17;;;;;;;22.67;15.77;;;18.10;99.90;;;;;;9995034;29;20306;-85
2022/11/04 22:34:20;;;;;;;24.27;16.10;;;18.10;99.90;;;;;;10012748;29;20274;-85
2022/11/04 22:39:22;;;;;;;38.60;25.10;;;18.10;99.90;;;;;;10012615;29;20247;-85
2022/11/04 22:44:25;;;;;;;22.10;15.67;;;18.20;99.90;;;;;;10012353;29;20380;-85
2022/11/04 22:49:27;;;;;;;28.87;20.33;;;18.30;99.90;;;;;;10010680;29;20670;-85
2022/11/04 22:54:30;;;;;;;21.63;16.13;;;18.20;99.90;;;;;;10012541;29;20760;-85
2022/11/04 22:59:32;;;;;;;25.43;17.33;;;18.10;99.90;;;;;;10012659;29;20258;-85
2022/11/04 23:04:36;;;;;;;20.93;15.47;;;17.90;99.90;;;;;;10008226;29;20713;-85
2022/11/04 23:18:40;;;;;;;26.43;18.00;;;18.10;99.90;;;;;;9993641;29;20776;-85
2022/11/04 23:20:26;;;;;;;25.97;17.93;;;17.90;99.90;;;;;;9992139;29;20322;-88
2022/11/04 23:25:29;;;;;;;26.47;17.50;;;18.10;99.90;;;;;;9995417;29;20314;-87
2022/11/04 23:30:37;;;;;;;30.73;19.80;;;16.70;99.90;;;;;;9988252;29;20784;-87
